createdAt,value
2022-11-15T00:01:44.532Z,5.88
2022-11-15T00:04:30.318Z,7.55
2022-11-15T00:07:40.447Z,4.82
2022-11-15T00:10:21.217Z,6.28
2022-11-15T00:13:11.725Z,10.35
2022-11-15T00:18:50.534Z,5.75
2022-11-15T00:21:36.421Z,6.22
2022-11-15T00:24:21.901Z,6.95
2022-11-15T00:27:08.227Z,4.30
2022-11-15T00:29:54.418Z,5.60
2022-11-15T00:32:40.086Z,6.22
2022-11-15T00:35:26.046Z,5.97
2022-11-15T00:38:11.741Z,2.90
2022-11-15T00:40:57.429Z,12.98
2022-11-15T00:43:44.803Z,4.28
2022-11-15T00:46:30.871Z,8.73
2022-11-15T00:49:16.461Z,5.00
2022-11-15T00:52:02.309Z,8.02
2022-11-15T00:54:47.890Z,8.32
2022-11-15T00:57:33.452Z,10.85
2022-11-15T01:00:18.802Z,7.63
2022-11-15T01:03:04.508Z,5.07
2022-11-15T01:05:50.373Z,7.47
2022-11-15T01:08:36.593Z,10.40
2022-11-15T01:11:22.239Z,4.82
2022-11-15T01:14:07.849Z,9.23
2022-11-15T01:16:53.646Z,5.35
2022-11-15T01:19:39.297Z,5.70
2022-11-15T01:22:24.614Z,7.88
2022-11-15T01:25:10.107Z,7.68
2022-11-15T01:27:55.954Z,11.52
2022-11-15T01:30:41.385Z,6.13
2022-11-15T01:33:27.209Z,9.75
2022-11-15T01:36:15.613Z,7.82
2022-11-15T01:39:01.378Z,12.45
2022-11-15T01:41:47.188Z,7.15
2022-11-15T01:44:35.244Z,8.85
2022-11-15T01:47:26.190Z,8.45
2022-11-15T01:50:15.722Z,9.88
2022-11-15T01:53:01.494Z,9.02
2022-11-15T01:55:47.297Z,5.68
2022-11-15T01:58:33.920Z,7.78
2022-11-15T02:01:20.352Z,5.10
2022-11-15T02:04:10.521Z,8.02
2022-11-15T02:06:56.152Z,9.18
2022-11-15T02:09:41.799Z,8.07
2022-11-15T02:12:27.394Z,5.85
2022-11-15T02:15:13.342Z,10.40
2022-11-15T02:18:14.103Z,9.05
2022-11-15T02:21:30.316Z,8.30
2022-11-15T02:24:21.720Z,4.38
2022-11-15T02:27:25.877Z,7.93
2022-11-15T02:30:26.168Z,5.28
2022-11-15T02:33:24.649Z,10.05
2022-11-15T02:36:19.946Z,8.23
2022-11-15T02:39:40.378Z,14.30
2022-11-15T02:42:48.689Z,4.95
2022-11-15T02:45:40.611Z,6.65
2022-11-15T02:48:27.363Z,9.77
2022-11-15T02:51:14.831Z,11.55
2022-11-15T02:54:00.359Z,11.13
2022-11-15T02:56:47.333Z,9.65
2022-11-15T02:59:47.569Z,7.05
2022-11-15T03:02:48.353Z,10.15
2022-11-15T03:05:36.876Z,5.38
2022-11-15T03:09:13.374Z,9.13
2022-11-15T03:12:11.990Z,7.68
2022-11-15T03:15:06.523Z,11.50
2022-11-15T03:18:12.021Z,8.38
2022-11-15T03:21:00.840Z,14.93
2022-11-15T03:23:48.670Z,7.88
2022-11-15T03:26:38.028Z,8.98
2022-11-15T03:29:32.801Z,11.02
2022-11-15T03:32:26.397Z,15.35
2022-11-15T03:35:23.606Z,9.15
2022-11-15T03:38:14.943Z,3.97
2022-11-15T03:41:05.145Z,9.10
2022-11-15T03:43:58.478Z,16.52
2022-11-15T03:46:47.148Z,9.73
2022-11-15T03:49:35.403Z,7.10
2022-11-15T03:52:23.457Z,10.00
2022-11-15T03:55:12.754Z,12.48
2022-11-15T03:58:00.783Z,8.43
2022-11-15T04:00:46.734Z,9.75
2022-11-15T04:03:32.646Z,6.00
2022-11-15T04:06:18.470Z,5.55
2022-11-15T04:09:04.308Z,8.93
2022-11-15T04:11:50.153Z,9.40
2022-11-15T04:14:35.934Z,12.43
2022-11-15T04:17:21.309Z,5.63
2022-11-15T04:20:32.069Z,16.42
2022-11-15T04:23:40.994Z,10.35
2022-11-15T04:26:26.792Z,5.70
2022-11-15T04:29:31.129Z,12.27
2022-11-15T04:32:16.956Z,6.72
2022-11-15T04:35:02.502Z,8.38
2022-11-15T04:37:49.605Z,8.73
2022-11-15T04:40:36.395Z,12.55
2022-11-15T04:43:22.179Z,9.70
2022-11-15T04:46:33.914Z,9.13
2022-11-15T04:49:19.627Z,12.55
2022-11-15T04:52:05.128Z,13.48
2022-11-15T04:54:50.895Z,13.02
2022-11-15T04:57:36.738Z,7.30
2022-11-15T05:00:22.072Z,7.57
2022-11-15T05:03:26.044Z,10.45
2022-11-15T05:06:11.502Z,16.05
2022-11-15T05:08:58.466Z,15.30
2022-11-15T05:11:44.209Z,13.10
2022-11-15T05:14:30.422Z,13.60
2022-11-15T05:17:15.773Z,15.27
2022-11-15T05:20:01.551Z,8.15
2022-11-15T05:22:46.849Z,13.00
2022-11-15T05:25:32.583Z,10.90
2022-11-15T05:28:18.363Z,14.00
2022-11-15T05:31:06.590Z,15.68
2022-11-15T05:33:52.958Z,15.70
2022-11-15T05:36:43.118Z,12.90
2022-11-15T05:39:28.530Z,9.50
2022-11-15T05:42:16.333Z,16.52
2022-11-15T05:45:05.079Z,6.78
2022-11-15T05:47:52.099Z,11.43
2022-11-15T05:50:40.626Z,13.48
2022-11-15T05:53:27.139Z,13.23
2022-11-15T05:56:13.604Z,9.80
2022-11-15T05:59:00.368Z,11.25
2022-11-15T06:01:46.193Z,17.23
2022-11-15T06:04:31.599Z,9.82
2022-11-15T06:07:16.815Z,9.15
2022-11-15T06:10:02.511Z,10.30
2022-11-15T06:12:48.084Z,9.23
2022-11-15T06:15:35.329Z,9.10
2022-11-15T06:18:20.668Z,6.93
2022-11-15T06:21:06.128Z,13.38
2022-11-15T06:23:51.506Z,9.70
2022-11-15T06:26:36.973Z,10.30
2022-11-15T06:29:22.734Z,10.15
2022-11-15T06:32:07.933Z,7.85
2022-11-15T06:34:53.089Z,13.85
2022-11-15T06:37:38.272Z,13.65
2022-11-15T06:40:23.432Z,6.80
2022-11-15T06:43:09.064Z,15.45
2022-11-15T06:45:54.329Z,19.48
2022-11-15T06:48:39.582Z,12.48
2022-11-15T06:51:25.016Z,9.10
2022-11-15T06:54:10.098Z,15.73
2022-11-15T06:56:55.316Z,9.43
2022-11-15T06:59:40.940Z,20.33
2022-11-15T07:02:26.764Z,10.40
2022-11-15T07:05:12.852Z,12.38
2022-11-15T07:07:59.327Z,15.60
2022-11-15T07:10:44.776Z,6.43
2022-11-15T07:13:35.875Z,10.93
2022-11-15T07:16:21.856Z,12.30
2022-11-15T07:19:06.922Z,15.68
2022-11-15T07:21:52.052Z,20.92
2022-11-15T07:24:37.224Z,9.63
2022-11-15T07:27:22.981Z,13.82
2022-11-15T07:30:09.199Z,15.15
2022-11-15T07:33:01.353Z,17.75
2022-11-15T07:35:49.957Z,18.45
2022-11-15T07:38:42.131Z,15.05
2022-11-15T07:41:28.319Z,11.65
2022-11-15T07:44:13.496Z,18.58
2022-11-15T07:46:59.201Z,12.40
2022-11-15T07:49:44.962Z,15.93
2022-11-15T07:52:30.622Z,12.75
2022-11-15T07:55:16.455Z,12.68
2022-11-15T07:58:06.305Z,14.48
2022-11-15T08:00:51.515Z,19.90
2022-11-15T08:03:37.052Z,13.18
2022-11-15T08:06:22.267Z,13.63
2022-11-15T08:09:07.532Z,10.68
2022-11-15T08:11:52.840Z,10.93
2022-11-15T08:14:37.882Z,10.27
2022-11-15T08:17:24.378Z,12.77
2022-11-15T08:20:10.400Z,16.45
2022-11-15T08:22:55.973Z,12.27
2022-11-15T08:25:41.974Z,15.43
2022-11-15T08:28:27.069Z,9.70
2022-11-15T08:31:18.519Z,10.35
2022-11-15T08:34:05.099Z,12.30
2022-11-15T08:36:50.616Z,11.80
2022-11-15T08:39:35.867Z,7.00
2022-11-15T08:42:21.363Z,10.50
2022-11-15T08:45:07.744Z,11.40
2022-11-15T08:47:54.603Z,8.82
2022-11-15T08:50:40.596Z,18.17
2022-11-15T08:53:26.290Z,12.60
2022-11-15T08:56:13.828Z,16.65
2022-11-15T08:58:59.399Z,16.33
2022-11-15T09:01:45.016Z,14.73
2022-11-15T09:04:30.883Z,10.63
2022-11-15T09:07:17.716Z,14.68
2022-11-15T09:10:03.803Z,17.05
2022-11-15T09:12:49.669Z,14.00
2022-11-15T09:15:35.430Z,22.77
2022-11-15T09:18:23.459Z,12.35
2022-11-15T09:21:10.110Z,10.48
2022-11-15T09:23:55.835Z,11.35
2022-11-15T09:26:41.456Z,11.10
2022-11-15T09:29:27.017Z,12.85
2022-11-15T09:32:12.351Z,14.57
2022-11-15T09:34:58.100Z,5.88
2022-11-15T09:37:43.270Z,13.27
2022-11-15T09:40:28.773Z,14.38
2022-11-15T09:43:27.640Z,13.35
2022-11-15T09:46:21.113Z,11.60
2022-11-15T09:49:10.208Z,13.40
2022-11-15T09:51:52.232Z,16.48
2022-11-15T09:54:53.495Z,13.60
2022-11-15T09:57:39.713Z,21.67
2022-11-15T10:03:42.879Z,12.88
2022-11-15T10:06:16.334Z,16.45
2022-11-15T10:09:02.841Z,16.23
2022-11-15T10:11:40.005Z,14.50
2022-11-15T10:14:39.430Z,13.80
2022-11-15T10:17:21.107Z,9.35
2022-11-15T10:20:11.255Z,9.30
2022-11-15T10:23:01.984Z,23.17
2022-11-15T10:28:14.896Z,16.67
2022-11-15T10:30:47.476Z,10.18
2022-11-15T10:33:30.973Z,13.02
2022-11-15T10:36:09.728Z,27.08
2022-11-15T10:38:51.906Z,11.90
2022-11-15T10:41:28.572Z,28.23
2022-11-15T10:44:13.314Z,14.95
2022-11-15T10:46:47.476Z,17.67
2022-11-15T10:49:19.998Z,15.50
2022-11-15T10:51:54.922Z,17.98
2022-11-15T10:54:31.888Z,20.90
2022-11-15T10:57:01.937Z,20.02
2022-11-15T10:59:38.671Z,14.57
2022-11-15T11:02:27.959Z,18.50
2022-11-15T11:04:54.911Z,12.02
2022-11-15T11:07:25.139Z,23.52
2022-11-15T11:10:49.967Z,20.00
2022-11-15T11:13:24.603Z,14.10
2022-11-15T11:16:14.548Z,15.45
2022-11-15T11:19:02.686Z,15.80
2022-11-15T11:21:47.892Z,26.58
2022-11-15T11:24:28.291Z,14.63
2022-11-15T11:27:25.434Z,16.58
2022-11-15T11:29:58.021Z,15.50
2022-11-15T11:32:43.189Z,27.52
2022-11-15T11:35:15.371Z,22.67
2022-11-15T11:38:06.519Z,15.38
2022-11-15T11:40:44.482Z,18.27
2022-11-15T11:43:23.574Z,23.67
2022-11-15T11:46:37.999Z,13.82
2022-11-15T11:49:26.080Z,18.35
2022-11-15T11:52:00.421Z,25.85
2022-11-15T11:54:38.633Z,13.50
2022-11-15T11:57:14.724Z,16.42
2022-11-15T11:59:48.321Z,18.38
2022-11-15T12:02:18.072Z,23.77
2022-11-15T12:04:51.824Z,15.57
2022-11-15T12:07:25.159Z,21.08
2022-11-15T12:09:59.138Z,21.13
2022-11-15T12:12:56.539Z,21.45
2022-11-15T12:15:31.548Z,15.63
2022-11-15T12:18:01.891Z,20.20
2022-11-15T12:20:34.606Z,21.08
2022-11-15T12:23:05.515Z,20.60
2022-11-15T12:25:55.514Z,26.90
2022-11-15T12:29:05.938Z,21.30
2022-11-15T12:31:39.642Z,15.25
2022-11-15T12:34:29.480Z,16.50
2022-11-15T12:36:56.705Z,19.88
2022-11-15T12:40:06.535Z,17.80
2022-11-15T12:42:58.080Z,20.10
2022-11-15T12:45:32.030Z,22.27
2022-11-15T12:48:17.547Z,12.00
2022-11-15T12:50:56.567Z,18.15
2022-11-15T12:53:26.668Z,16.40
2022-11-15T12:56:13.102Z,15.18
2022-11-15T12:58:55.389Z,13.68
2022-11-15T13:01:37.083Z,27.98
2022-11-15T13:04:22.578Z,20.35
2022-11-15T13:07:00.306Z,29.52
2022-11-15T13:09:33.391Z,19.85
2022-11-15T13:12:05.039Z,20.30
2022-11-15T13:14:37.957Z,23.67
2022-11-15T13:17:17.763Z,21.27
2022-11-15T13:19:47.173Z,20.85
2022-11-15T13:22:34.257Z,27.52
2022-11-15T13:25:05.615Z,30.45
2022-11-15T13:27:32.854Z,21.35
2022-11-15T13:30:15.220Z,25.27
2022-11-15T13:32:42.323Z,29.17
2022-11-15T13:35:09.452Z,16.88
2022-11-15T13:37:36.820Z,26.98
2022-11-15T13:40:34.213Z,21.17
2022-11-15T13:43:15.179Z,25.08
2022-11-15T13:45:42.226Z,27.70
2022-11-15T13:48:09.410Z,23.88
2022-11-15T13:50:39.720Z,21.45
2022-11-15T13:53:06.915Z,27.23
2022-11-15T13:55:34.606Z,26.92
2022-11-15T13:58:07.939Z,26.65
2022-11-15T14:00:44.912Z,20.23
2022-11-15T14:03:23.261Z,35.88
2022-11-15T14:06:08.889Z,27.10
2022-11-15T14:08:36.695Z,28.80
2022-11-15T14:11:22.036Z,21.48
2022-11-15T14:14:10.181Z,22.25
2022-11-15T14:16:39.481Z,20.20
2022-11-15T14:19:10.517Z,17.23
2022-11-15T14:21:38.625Z,18.27
2022-11-15T14:24:17.003Z,20.38
2022-11-15T14:26:45.662Z,19.38
2022-11-15T14:29:29.802Z,22.33
2022-11-15T14:32:17.185Z,22.35
2022-11-15T14:34:44.701Z,19.60
2022-11-15T14:37:22.016Z,15.40
2022-11-15T14:39:49.357Z,18.38
2022-11-15T14:42:17.998Z,19.10
2022-11-15T14:44:46.331Z,17.95
2022-11-15T14:47:14.082Z,14.77
2022-11-15T14:49:41.119Z,16.40
2022-11-15T14:52:36.374Z,24.58
2022-11-15T14:55:13.036Z,17.92
2022-11-15T14:57:41.816Z,19.67
2022-11-15T15:00:11.090Z,19.25
2022-11-15T15:02:43.589Z,20.17
2022-11-15T15:05:17.843Z,15.57
2022-11-15T15:07:46.116Z,20.17
2022-11-15T15:13:01.869Z,21.35
2022-11-15T15:15:37.792Z,15.55
2022-11-15T15:18:06.421Z,18.52
2022-11-15T15:20:33.684Z,23.65
2022-11-15T15:23:00.746Z,26.25
2022-11-15T15:25:33.982Z,21.52
2022-11-15T15:28:01.916Z,19.35
2022-11-15T15:30:30.740Z,22.38
2022-11-15T15:32:58.042Z,20.05
2022-11-15T15:35:31.910Z,22.17
2022-11-15T15:38:00.268Z,18.23
2022-11-15T15:40:30.327Z,27.67
2022-11-15T15:42:57.362Z,21.38
2022-11-15T15:45:26.285Z,15.77
2022-11-15T15:47:53.750Z,17.63
2022-11-15T15:50:27.401Z,21.20
2022-11-15T15:52:58.427Z,22.13
2022-11-15T15:55:26.239Z,22.98
2022-11-15T15:57:54.123Z,30.33
2022-11-15T16:00:24.319Z,29.40
2022-11-15T16:02:52.275Z,24.10
2022-11-15T16:05:19.418Z,22.33
2022-11-15T16:07:47.511Z,22.50
2022-11-15T16:10:28.007Z,25.05
2022-11-15T16:12:57.256Z,29.27
2022-11-15T16:15:27.812Z,26.15
2022-11-15T16:20:38.514Z,22.15
2022-11-15T16:23:09.558Z,19.23
2022-11-15T16:25:57.148Z,28.92
2022-11-15T16:28:32.366Z,17.50
2022-11-15T16:31:05.704Z,16.52
2022-11-15T16:33:33.482Z,20.42
2022-11-15T16:36:01.820Z,14.55
2022-11-15T16:38:28.796Z,23.67
2022-11-15T16:40:55.853Z,16.85
2022-11-15T16:43:23.279Z,27.42
2022-11-15T16:45:51.947Z,19.73
2022-11-15T16:48:27.842Z,21.75
2022-11-15T16:50:59.101Z,24.35
2022-11-15T16:53:27.617Z,18.35
2022-11-15T16:55:58.473Z,16.38
2022-11-15T16:58:25.744Z,22.98
2022-11-15T17:00:54.600Z,22.60
2022-11-15T17:03:25.459Z,25.75
2022-11-15T17:05:53.143Z,21.80
2022-11-15T17:08:22.099Z,23.33
2022-11-15T17:10:49.542Z,24.35
2022-11-15T17:13:16.695Z,21.50
2022-11-15T17:15:44.029Z,29.27
2022-11-15T17:18:15.853Z,26.80
2022-11-15T17:20:43.515Z,27.98
2022-11-15T17:23:15.950Z,28.15
2022-11-15T17:25:44.462Z,28.10
2022-11-15T17:28:12.270Z,28.38
2022-11-15T17:30:42.277Z,26.67
2022-11-15T17:33:09.345Z,32.45
2022-11-15T17:35:36.379Z,26.80
2022-11-15T17:38:03.442Z,23.15
2022-11-15T17:40:30.567Z,23.38
2022-11-15T17:42:58.907Z,15.80
2022-11-15T17:45:26.092Z,24.75
2022-11-15T17:47:53.890Z,24.10
2022-11-15T17:50:20.936Z,31.20
2022-11-15T17:52:47.974Z,21.20
2022-11-15T17:55:15.120Z,24.17
2022-11-15T17:57:44.459Z,28.35
2022-11-15T18:00:12.190Z,28.27
2022-11-15T18:02:39.274Z,34.03
2022-11-15T18:05:06.780Z,28.92
2022-11-15T18:07:33.956Z,40.97
2022-11-15T18:10:01.027Z,35.30
2022-11-15T18:12:28.294Z,29.00
2022-11-15T18:14:55.409Z,31.92
2022-11-15T18:17:23.958Z,30.10
2022-11-15T18:19:50.985Z,32.85
2022-11-15T18:22:18.621Z,32.22
2022-11-15T18:24:47.288Z,35.42
2022-11-15T18:27:14.339Z,30.75
2022-11-15T18:29:41.584Z,31.17
2022-11-15T18:32:12.565Z,28.95
2022-11-15T18:34:40.165Z,23.17
2022-11-15T18:37:07.683Z,24.25
2022-11-15T18:39:34.855Z,26.83
2022-11-15T18:42:02.440Z,25.40
2022-11-15T18:44:30.523Z,25.42
2022-11-15T18:46:59.529Z,25.20
2022-11-15T18:49:26.522Z,24.30
2022-11-15T18:51:53.534Z,23.40
2022-11-15T18:54:20.594Z,28.02
2022-11-15T18:56:47.686Z,26.35
2022-11-15T18:59:15.846Z,28.13
2022-11-15T19:01:47.864Z,27.10
2022-11-15T19:04:20.715Z,30.27
2022-11-15T19:06:49.539Z,30.83
2022-11-15T19:09:19.029Z,28.83
2022-11-15T19:11:47.522Z,28.67
2022-11-15T19:14:16.611Z,32.30
2022-11-15T19:16:55.180Z,27.45
2022-11-15T19:19:24.824Z,28.40
2022-11-15T19:21:52.757Z,29.75
2022-11-15T19:24:20.255Z,26.33
2022-11-15T19:26:47.663Z,32.67
2022-11-15T19:29:15.420Z,26.15
2022-11-15T19:31:42.714Z,30.70
2022-11-15T19:34:11.340Z,28.38
2022-11-15T19:36:40.916Z,28.88
2022-11-15T19:39:12.843Z,25.83
2022-11-15T19:41:44.289Z,26.67
2022-11-15T19:44:13.054Z,31.60
2022-11-15T19:46:41.211Z,30.35
2022-11-15T19:49:11.076Z,34.17
2022-11-15T19:51:39.284Z,30.98
2022-11-15T19:54:08.977Z,35.05
2022-11-15T19:56:37.136Z,29.83
2022-11-15T19:59:05.256Z,27.75
2022-11-15T20:01:36.499Z,25.80
2022-11-15T20:04:04.265Z,31.20
2022-11-15T20:06:36.869Z,22.55
2022-11-15T20:09:04.479Z,22.02
2022-11-15T20:11:32.130Z,22.55
2022-11-15T20:14:02.401Z,26.95
2022-11-15T20:16:30.279Z,23.10
2022-11-15T20:18:57.813Z,19.25
2022-11-15T20:21:25.095Z,22.70
2022-11-15T20:23:52.772Z,20.65
2022-11-15T20:26:20.431Z,23.85
2022-11-15T20:28:48.331Z,22.55
2022-11-15T20:31:16.566Z,23.02
2022-11-15T20:33:43.996Z,29.00
2022-11-15T20:36:15.824Z,30.17
2022-11-15T20:38:43.905Z,33.75
2022-11-15T20:41:12.278Z,28.35
2022-11-15T20:43:43.534Z,27.27
2022-11-15T20:46:12.726Z,29.55
2022-11-15T20:48:40.873Z,31.30
2022-11-15T20:51:16.800Z,30.30
2022-11-15T20:53:44.837Z,30.95
2022-11-15T20:56:14.622Z,32.53
2022-11-15T20:58:42.901Z,33.23
2022-11-15T21:01:13.845Z,33.80
2022-11-15T21:03:41.325Z,40.72
2022-11-15T21:06:08.783Z,34.08
2022-11-15T21:08:54.746Z,40.88
2022-11-15T21:11:40.887Z,38.42
2022-11-15T21:14:09.494Z,41.08
2022-11-15T21:16:37.894Z,45.35
2022-11-15T21:19:06.120Z,42.85
2022-11-15T21:21:33.611Z,42.38
2022-11-15T21:24:06.597Z,39.53
2022-11-15T21:26:34.076Z,43.63
2022-11-15T21:29:01.341Z,40.65
2022-11-15T21:31:29.080Z,37.10
2022-11-15T21:33:56.101Z,36.83
2022-11-15T21:36:25.146Z,39.22
2022-11-15T21:38:52.253Z,41.10
2022-11-15T21:41:19.632Z,39.83
2022-11-15T21:43:47.010Z,33.65
2022-11-15T21:46:14.050Z,35.60
2022-11-15T21:48:41.238Z,32.55
2022-11-15T21:51:11.018Z,38.28
2022-11-15T21:53:38.117Z,32.35
2022-11-15T21:56:05.649Z,30.05
2022-11-15T21:58:33.063Z,29.65
2022-11-15T22:01:19.134Z,30.50
2022-11-15T22:03:46.799Z,30.77
2022-11-15T22:06:17.711Z,33.30
2022-11-15T22:08:46.499Z,30.15
2022-11-15T22:11:14.621Z,32.35
2022-11-15T22:13:42.119Z,35.33
2022-11-15T22:16:10.174Z,30.95
2022-11-15T22:18:38.221Z,33.30
2022-11-15T22:21:09.674Z,28.63
2022-11-15T22:23:37.452Z,33.35
2022-11-15T22:26:05.386Z,33.55
2022-11-15T22:28:33.191Z,34.35
2022-11-15T22:31:00.916Z,31.33
2022-11-15T22:33:30.530Z,32.30
2022-11-15T22:35:58.488Z,28.83
2022-11-15T22:38:26.858Z,32.58
2022-11-15T22:40:54.600Z,36.05
2022-11-15T22:43:23.991Z,32.67
2022-11-15T22:45:55.818Z,33.25
2022-11-15T22:48:25.608Z,33.83
2022-11-15T22:50:53.154Z,34.50
2022-11-15T22:53:20.911Z,34.15
2022-11-15T22:56:06.967Z,28.83
2022-11-15T22:58:34.517Z,30.15
2022-11-15T23:01:04.149Z,31.77
2022-11-15T23:03:32.202Z,33.35
2022-11-15T23:06:07.604Z,35.03
2022-11-15T23:08:35.281Z,35.45
2022-11-15T23:11:22.723Z,34.40
2022-11-15T23:13:53.433Z,33.47
2022-11-15T23:21:49.930Z,35.88
2022-11-15T23:24:17.878Z,35.85
2022-11-15T23:26:46.318Z,36.15
2022-11-15T23:29:15.586Z,36.08
2022-11-15T23:32:02.661Z,34.72
2022-11-15T23:34:35.797Z,27.75
2022-11-15T23:37:03.670Z,36.58
2022-11-15T23:39:31.143Z,40.85
2022-11-15T23:41:58.275Z,38.10
2022-11-15T23:44:26.158Z,35.67
2022-11-15T23:46:53.821Z,36.25
2022-11-15T23:49:21.783Z,38.85
2022-11-15T23:51:48.866Z,43.40
2022-11-15T23:54:16.170Z,40.15
2022-11-15T23:56:43.366Z,42.17
2022-11-15T23:59:10.499Z,44.08
